sensor_id;sensor_type;location;lat;lon;timestamp;noise_LAeq;noise_LA_min;noise_LA_max;noise_LA01;noise_LA95
67320;Laerm;57665;51.436;5.978;2023-08-20T00:00:00;37.23;36.31;38.35;;
67320;Laerm;57665;51.436;5.978;2023-08-20T00:00:11;37.92;36.19;42.35;;
67320;Laerm;57665;51.436;5.978;2023-08-20T00:00:22;37.36;36.33;38.55;;
67320;Laerm;57665;51.436;5.978;2023-08-20T00:00:32;37.42;36.32;39.79;;
67320;Laerm;57665;51.436;5.978;2023-08-20T00:00:43;37.22;36.34;38.29;;
67320;Laerm;57665;51.436;5.978;2023-08-20T00:00:56;37.24;36.13;38.15;;
67320;Laerm;57665;51.436;5.978;2023-08-20T00:01:09;37.18;36.30;40.62;;
67320;Laerm;57665;51.436;5.978;2023-08-20T00:01:23;37.16;36.21;37.95;;
67320;Laerm;57665;51.436;5.978;2023-08-20T00:01:34;37.17;36.05;40.54;;
67320;Laerm;57665;51.436;5.978;2023-08-20T00:01:44;37.14;36.17;38.05;;
67320;Laerm;57665;51.436;5.978;2023-08-20T00:01:56;37.19;35.77;39.37;;
67320;Laerm;57665;51.436;5.978;2023-08-20T00:02:07;37.14;36.20;39.11;;
67320;Laerm;57665;51.436;5.978;2023-08-20T00:02:21;37.18;36.04;38.37;;
67320;Laerm;57665;51.436;5.978;2023-08-20T00:02:33;37.21;36.02;39.66;;
67320;Laerm;57665;51.436;5.978;2023-08-20T00:02:46;37.16;35.99;38.12;;
67320;Laerm;57665;51.436;5.978;2023-08-20T00:03:03;37.16;36.20;39.24;;
67320;Laerm;57665;51.436;5.978;2023-08-20T00:03:14;37.11;36.11;38.15;;
67320;Laerm;57665;51.436;5.978;2023-08-20T00:03:33;37.19;36.23;39.07;;
67320;Laerm;57665;51.436;5.978;2023-08-20T00:03:43;37.36;36.13;38.55;;
67320;Laerm;57665;51.436;5.978;2023-08-20T00:03:59;37.26;36.25;39.80;;
67320;Laerm;57665;51.436;5.978;2023-08-20T00:04:09;37.24;36.14;38.30;;
67320;Laerm;57665;51.436;5.978;2023-08-20T00:04:20;37.23;36.25;39.52;;
67320;Laerm;57665;51.436;5.978;2023-08-20T00:04:37;37.24;36.31;38.44;;
67320;Laerm;57665;51.436;5.978;2023-08-20T00:04:47;37.21;36.29;39.19;;
67320;Laerm;57665;51.436;5.978;2023-08-20T00:04:58;37.16;36.43;38.17;;
67320;Laerm;57665;51.436;5.978;2023-08-20T00:05:12;37.27;36.36;40.70;;
67320;Laerm;57665;51.436;5.978;2023-08-20T00:05:22;37.19;36.02;38.04;;
67320;Laerm;57665;51.436;5.978;2023-08-20T00:05:33;37.22;36.40;38.29;;
67320;Laerm;57665;51.436;5.978;2023-08-20T00:05:43;37.25;36.36;39.19;;
67320;Laerm;57665;51.436;5.978;2023-08-20T00:05:54;37.28;36.36;38.28;;
67320;Laerm;57665;51.436;5.978;2023-08-20T00:06:04;37.24;36.33;38.13;;
67320;Laerm;57665;51.436;5.978;2023-08-20T00:06:14;37.26;36.10;39.87;;
67320;Laerm;57665;51.436;5.978;2023-08-20T00:06:25;37.17;36.17;38.08;;
67320;Laerm;57665;51.436;5.978;2023-08-20T00:06:35;37.20;36.06;38.23;;
67320;Laerm;57665;51.436;5.978;2023-08-20T00:06:46;37.24;36.08;38.87;;
67320;Laerm;57665;51.436;5.978;2023-08-20T00:06:56;37.21;36.16;38.13;;
67320;Laerm;57665;51.436;5.978;2023-08-20T00:07:07;37.25;36.26;38.19;;
67320;Laerm;57665;51.436;5.978;2023-08-20T00:07:17;37.21;35.97;37.98;;
67320;Laerm;57665;51.436;5.978;2023-08-20T00:07:28;37.25;36.26;38.07;;
67320;Laerm;57665;51.436;5.978;2023-08-20T00:07:39;37.21;36.42;39.58;;
67320;Laerm;57665;51.436;5.978;2023-08-20T00:07:49;37.22;36.11;39.65;;
67320;Laerm;57665;51.436;5.978;2023-08-20T00:07:59;38.20;36.48;41.58;;
67320;Laerm;57665;51.436;5.978;2023-08-20T00:08:09;37.37;36.22;38.89;;
67320;Laerm;57665;51.436;5.978;2023-08-20T00:08:20;37.12;35.80;38.27;;
67320;Laerm;57665;51.436;5.978;2023-08-20T00:08:30;37.14;35.95;38.12;;
67320;Laerm;57665;51.436;5.978;2023-08-20T00:08:40;37.23;36.27;39.31;;
67320;Laerm;57665;51.436;5.978;2023-08-20T00:08:51;37.28;36.33;39.39;;
67320;Laerm;57665;51.436;5.978;2023-08-20T00:09:01;37.16;36.03;39.27;;
67320;Laerm;57665;51.436;5.978;2023-08-20T00:09:14;37.09;36.09;38.28;;
67320;Laerm;57665;51.436;5.978;2023-08-20T00:09:27;37.09;36.12;39.49;;
67320;Laerm;57665;51.436;5.978;2023-08-20T00:09:37;37.07;35.95;38.09;;
67320;Laerm;57665;51.436;5.978;2023-08-20T00:09:48;37.06;36.20;38.91;;
67320;Laerm;57665;51.436;5.978;2023-08-20T00:10:01;37.05;36.08;37.92;;
67320;Laerm;57665;51.436;5.978;2023-08-20T00:10:12;37.03;36.03;37.98;;
67320;Laerm;57665;51.436;5.978;2023-08-20T00:10:40;37.04;36.03;38.53;;
67320;Laerm;57665;51.436;5.978;2023-08-20T00:10:53;37.09;36.15;37.97;;
67320;Laerm;57665;51.436;5.978;2023-08-20T00:11:06;37.13;36.17;39.89;;
67320;Laerm;57665;51.436;5.978;2023-08-20T00:11:16;37.11;36.43;38.15;;
67320;Laerm;57665;51.436;5.978;2023-08-20T00:11:27;37.13;36.27;38.08;;
67320;Laerm;57665;51.436;5.978;2023-08-20T00:11:37;37.21;36.13;42.67;;
67320;Laerm;57665;51.436;5.978;2023-08-20T00:11:59;37.14;36.09;38.06;;
67320;Laerm;57665;51.436;5.978;2023-08-20T00:12:09;37.17;36.35;38.09;;
67320;Laerm;57665;51.436;5.978;2023-08-20T00:12:30;37.21;35.80;38.28;;
67320;Laerm;57665;51.436;5.978;2023-08-20T00:12:40;37.16;36.14;38.16;;
67320;Laerm;57665;51.436;5.978;2023-08-20T00:12:56;37.13;36.04;38.03;;
67320;Laerm;57665;51.436;5.978;2023-08-20T00:13:06;37.14;36.24;38.21;;
67320;Laerm;57665;51.436;5.978;2023-08-20T00:13:17;37.21;36.36;38.04;;
67320;Laerm;57665;51.436;5.978;2023-08-20T00:13:27;37.28;36.15;38.26;;
67320;Laerm;57665;51.436;5.978;2023-08-20T00:13:40;37.22;36.21;38.22;;
67320;Laerm;57665;51.436;5.978;2023-08-20T00:13:52;37.24;36.36;39.86;;
67320;Laerm;57665;51.436;5.978;2023-08-20T00:14:03;37.24;36.20;38.57;;
67320;Laerm;57665;51.436;5.978;2023-08-20T00:14:16;37.20;36.10;38.90;;
67320;Laerm;57665;51.436;5.978;2023-08-20T00:14:56;37.16;36.02;40.33;;
67320;Laerm;57665;51.436;5.978;2023-08-20T00:15:08;37.32;36.38;38.98;;
67320;Laerm;57665;51.436;5.978;2023-08-20T00:15:18;38.04;36.90;39.66;;
67320;Laerm;57665;51.436;5.978;2023-08-20T00:15:30;37.94;36.54;40.08;;
67320;Laerm;57665;51.436;5.978;2023-08-20T00:15:40;38.78;37.21;41.67;;
67320;Laerm;57665;51.436;5.978;2023-08-20T00:15:50;39.34;37.39;43.07;;
67320;Laerm;57665;51.436;5.978;2023-08-20T00:16:01;38.37;36.18;41.95;;
67320;Laerm;57665;51.436;5.978;2023-08-20T00:16:12;37.16;36.12;38.78;;
67320;Laerm;57665;51.436;5.978;2023-08-20T00:16:22;37.15;35.99;38.93;;
67320;Laerm;57665;51.436;5.978;2023-08-20T00:16:35;37.07;35.89;39.01;;
67320;Laerm;57665;51.436;5.978;2023-08-20T00:16:45;37.09;36.20;38.16;;
67320;Laerm;57665;51.436;5.978;2023-08-20T00:16:56;37.13;35.81;40.31;;
67320;Laerm;57665;51.436;5.978;2023-08-20T00:17:06;37.12;35.88;38.36;;
67320;Laerm;57665;51.436;5.978;2023-08-20T00:17:17;37.06;36.09;37.98;;
67320;Laerm;57665;51.436;5.978;2023-08-20T00:17:27;37.09;36.06;38.36;;
67320;Laerm;57665;51.436;5.978;2023-08-20T00:17:38;37.00;35.92;40.19;;
67320;Laerm;57665;51.436;5.978;2023-08-20T00:17:49;37.02;35.80;37.96;;
67320;Laerm;57665;51.436;5.978;2023-08-20T00:17:59;37.01;35.73;37.98;;
67320;Laerm;57665;51.436;5.978;2023-08-20T00:18:12;37.08;36.18;38.35;;
67320;Laerm;57665;51.436;5.978;2023-08-20T00:18:23;37.07;35.97;37.85;;
67320;Laerm;57665;51.436;5.978;2023-08-20T00:18:33;37.03;36.00;37.93;;
67320;Laerm;57665;51.436;5.978;2023-08-20T00:18:44;37.07;35.86;38.00;;
67320;Laerm;57665;51.436;5.978;2023-08-20T00:19:02;37.11;36.20;38.68;;
67320;Laerm;57665;51.436;5.978;2023-08-20T00:19:13;37.02;35.96;38.06;;
67320;Laerm;57665;51.436;5.978;2023-08-20T00:19:24;37.06;35.98;38.25;;
67320;Laerm;57665;51.436;5.978;2023-08-20T00:19:34;37.14;36.15;38.14;;
67320;Laerm;57665;51.436;5.978;2023-08-20T00:19:44;37.07;35.79;38.07;;
67320;Laerm;57665;51.436;5.978;2023-08-20T00:19:55;36.99;35.95;37.94;;
67320;Laerm;57665;51.436;5.978;2023-08-20T00:20:09;37.07;35.90;38.06;;
67320;Laerm;57665;51.436;5.978;2023-08-20T00:20:25;37.01;35.84;37.91;;
67320;Laerm;57665;51.436;5.978;2023-08-20T00:20:35;37.00;36.02;37.91;;
67320;Laerm;57665;51.436;5.978;2023-08-20T00:20:46;37.02;35.65;37.85;;
67320;Laerm;57665;51.436;5.978;2023-08-20T00:20:57;37.12;35.96;38.53;;
67320;Laerm;57665;51.436;5.978;2023-08-20T00:21:10;37.01;36.11;37.87;;
67320;Laerm;57665;51.436;5.978;2023-08-20T00:21:20;37.02;35.91;37.91;;
67320;Laerm;57665;51.436;5.978;2023-08-20T00:21:31;37.05;35.79;37.93;;
67320;Laerm;57665;51.436;5.978;2023-08-20T00:21:41;37.03;36.12;37.98;;
67320;Laerm;57665;51.436;5.978;2023-08-20T00:21:54;37.19;36.14;38.67;;
67320;Laerm;57665;51.436;5.978;2023-08-20T00:22:05;38.45;35.90;40.98;;
67320;Laerm;57665;51.436;5.978;2023-08-20T00:22:16;36.97;35.82;37.98;;
67320;Laerm;57665;51.436;5.978;2023-08-20T00:22:29;36.95;35.69;37.96;;
67320;Laerm;57665;51.436;5.978;2023-08-20T00:22:41;36.96;35.83;37.96;;
67320;Laerm;57665;51.436;5.978;2023-08-20T00:22:52;36.89;36.06;37.85;;
67320;Laerm;57665;51.436;5.978;2023-08-20T00:23:08;36.98;36.06;38.72;;
67320;Laerm;57665;51.436;5.978;2023-08-20T00:23:18;36.94;35.89;37.94;;
67320;Laerm;57665;51.436;5.978;2023-08-20T00:23:29;36.99;36.02;37.86;;
67320;Laerm;57665;51.436;5.978;2023-08-20T00:23:39;36.98;36.09;37.90;;
67320;Laerm;57665;51.436;5.978;2023-08-20T00:23:50;36.91;35.73;37.75;;
67320;Laerm;57665;51.436;5.978;2023-08-20T00:24:03;36.92;35.99;37.81;;
67320;Laerm;57665;51.436;5.978;2023-08-20T00:24:13;36.97;35.89;37.94;;
67320;Laerm;57665;51.436;5.978;2023-08-20T00:24:24;36.93;36.01;37.68;;
67320;Laerm;57665;51.436;5.978;2023-08-20T00:24:40;36.91;36.09;37.74;;
67320;Laerm;57665;51.436;5.978;2023-08-20T00:24:52;36.90;35.90;37.80;;
67320;Laerm;57665;51.436;5.978;2023-08-20T00:25:04;36.91;35.93;37.82;;
67320;Laerm;57665;51.436;5.978;2023-08-20T00:25:16;36.91;35.60;37.89;;
67320;Laerm;57665;51.436;5.978;2023-08-20T00:25:29;36.96;35.56;38.04;;
67320;Laerm;57665;51.436;5.978;2023-08-20T00:25:39;36.87;35.87;37.63;;
67320;Laerm;57665;51.436;5.978;2023-08-20T00:25:49;36.89;35.77;37.86;;
67320;Laerm;57665;51.436;5.978;2023-08-20T00:26:00;36.88;35.73;37.97;;
67320;Laerm;57665;51.436;5.978;2023-08-20T00:26:10;36.84;35.87;37.70;;
67320;Laerm;57665;51.436;5.978;2023-08-20T00:26:22;36.96;35.86;37.89;;
67320;Laerm;57665;51.436;5.978;2023-08-20T00:26:38;36.95;35.83;38.09;;
67320;Laerm;57665;51.436;5.978;2023-08-20T00:26:48;36.97;35.78;37.84;;
67320;Laerm;57665;51.436;5.978;2023-08-20T00:26:58;36.89;35.65;38.20;;
67320;Laerm;57665;51.436;5.978;2023-08-20T00:27:09;36.83;36.00;37.81;;
67320;Laerm;57665;51.436;5.978;2023-08-20T00:27:19;36.90;35.58;37.74;;
67320;Laerm;57665;51.436;5.978;2023-08-20T00:27:36;36.88;35.86;39.78;;
67320;Laerm;57665;51.436;5.978;2023-08-20T00:27:49;36.87;35.86;37.96;;
67320;Laerm;57665;51.436;5.978;2023-08-20T00:28:05;36.88;35.95;37.90;;
67320;Laerm;57665;51.436;5.978;2023-08-20T00:28:16;36.94;35.95;37.99;;
67320;Laerm;57665;51.436;5.978;2023-08-20T00:28:28;36.95;35.73;37.95;;
67320;Laerm;57665;51.436;5.978;2023-08-20T00:28:38;36.93;36.02;37.90;;
67320;Laerm;57665;51.436;5.978;2023-08-20T00:29:04;36.92;35.75;37.78;;
67320;Laerm;57665;51.436;5.978;2023-08-20T00:29:17;36.98;36.17;37.92;;
67320;Laerm;57665;51.436;5.978;2023-08-20T00:29:27;36.94;35.98;37.95;;
67320;Laerm;57665;51.436;5.978;2023-08-20T00:29:38;36.99;35.92;37.84;;
67320;Laerm;57665;51.436;5.978;2023-08-20T00:29:48;36.87;35.76;37.65;;
67320;Laerm;57665;51.436;5.978;2023-08-20T00:29:58;36.97;36.00;37.83;;
67320;Laerm;57665;51.436;5.978;2023-08-20T00:30:09;36.93;35.76;37.82;;
67320;Laerm;57665;51.436;5.978;2023-08-20T00:30:19;36.93;36.02;37.77;;
67320;Laerm;57665;51.436;5.978;2023-08-20T00:30:50;36.89;35.44;38.26;;
67320;Laerm;57665;51.436;5.978;2023-08-20T00:31:07;36.93;35.75;38.06;;
67320;Laerm;57665;51.436;5.978;2023-08-20T00:31:19;36.96;35.83;40.54;;
67320;Laerm;57665;51.436;5.978;2023-08-20T00:31:30;36.85;35.63;38.17;;
67320;Laerm;57665;51.436;5.978;2023-08-20T00:31:43;36.84;35.62;37.73;;
67320;Laerm;57665;51.436;5.978;2023-08-20T00:31:53;36.89;35.81;37.85;;
67320;Laerm;57665;51.436;5.978;2023-08-20T00:32:04;36.93;35.77;37.92;;
67320;Laerm;57665;51.436;5.978;2023-08-20T00:32:14;36.85;35.84;37.65;;
67320;Laerm;57665;51.436;5.978;2023-08-20T00:32:27;36.80;35.70;38.09;;
67320;Laerm;57665;51.436;5.978;2023-08-20T00:32:37;36.89;36.02;40.72;;
67320;Laerm;57665;51.436;5.978;2023-08-20T00:32:54;36.86;35.55;37.97;;
67320;Laerm;57665;51.436;5.978;2023-08-20T00:33:04;36.80;35.81;37.80;;
67320;Laerm;57665;51.436;5.978;2023-08-20T00:33:14;36.82;35.72;37.75;;
67320;Laerm;57665;51.436;5.978;2023-08-20T00:33:27;36.81;35.85;37.91;;
67320;Laerm;57665;51.436;5.978;2023-08-20T00:33:37;36.81;35.78;37.85;;
67320;Laerm;57665;51.436;5.978;2023-08-20T00:33:48;36.84;35.82;37.75;;
67320;Laerm;57665;51.436;5.978;2023-08-20T00:33:58;36.85;35.86;37.64;;
67320;Laerm;57665;51.436;5.978;2023-08-20T00:34:17;36.94;35.83;38.69;;
67320;Laerm;57665;51.436;5.978;2023-08-20T00:34:28;36.93;35.85;37.86;;
67320;Laerm;57665;51.436;5.978;2023-08-20T00:34:41;36.91;35.66;37.87;;
67320;Laerm;57665;51.436;5.978;2023-08-20T00:34:52;36.91;35.79;37.75;;
67320;Laerm;57665;51.436;5.978;2023-08-20T00:35:02;36.89;35.81;37.78;;
67320;Laerm;57665;51.436;5.978;2023-08-20T00:35:13;36.95;35.96;37.88;;
67320;Laerm;57665;51.436;5.978;2023-08-20T00:35:26;36.87;35.83;38.83;;
67320;Laerm;57665;51.436;5.978;2023-08-20T00:35:37;36.93;35.42;38.37;;
67320;Laerm;57665;51.436;5.978;2023-08-20T00:35:50;36.92;35.73;38.02;;
67320;Laerm;57665;51.436;5.978;2023-08-20T00:36:01;36.92;35.63;37.93;;
67320;Laerm;57665;51.436;5.978;2023-08-20T00:36:11;36.90;35.92;37.84;;
67320;Laerm;57665;51.436;5.978;2023-08-20T00:36:21;36.89;35.66;38.03;;
67320;Laerm;57665;51.436;5.978;2023-08-20T00:36:31;36.84;35.65;38.00;;
67320;Laerm;57665;51.436;5.978;2023-08-20T00:36:42;36.86;35.44;37.76;;
67320;Laerm;57665;51.436;5.978;2023-08-20T00:36:58;36.90;35.82;37.75;;
67320;Laerm;57665;51.436;5.978;2023-08-20T00:37:08;37.76;35.65;41.39;;
67320;Laerm;57665;51.436;5.978;2023-08-20T00:37:19;36.81;35.81;37.63;;
67320;Laerm;57665;51.436;5.978;2023-08-20T00:37:38;36.81;35.93;37.78;;
67320;Laerm;57665;51.436;5.978;2023-08-20T00:37:49;36.87;35.42;37.64;;
67320;Laerm;57665;51.436;5.978;2023-08-20T00:37:59;36.85;35.59;37.96;;
67320;Laerm;57665;51.436;5.978;2023-08-20T00:38:10;36.90;35.94;37.77;;
67320;Laerm;57665;51.436;5.978;2023-08-20T00:38:26;36.88;35.78;38.06;;
67320;Laerm;57665;51.436;5.978;2023-08-20T00:38:36;36.79;36.00;37.82;;
67320;Laerm;57665;51.436;5.978;2023-08-20T00:38:46;36.79;35.68;37.85;;
67320;Laerm;57665;51.436;5.978;2023-08-20T00:38:56;37.03;36.22;38.37;;
67320;Laerm;57665;51.436;5.978;2023-08-20T00:39:07;37.55;36.19;39.18;;
67320;Laerm;57665;51.436;5.978;2023-08-20T00:39:17;37.01;35.73;39.13;;
67320;Laerm;57665;51.436;5.978;2023-08-20T00:39:28;36.91;35.82;37.90;;
67320;Laerm;57665;51.436;5.978;2023-08-20T00:39:38;36.93;36.03;37.82;;
67320;Laerm;57665;51.436;5.978;2023-08-20T00:39:49;36.84;35.93;37.84;;
67320;Laerm;57665;51.436;5.978;2023-08-20T00:39:59;36.82;35.85;37.74;;
67320;Laerm;57665;51.436;5.978;2023-08-20T00:40:12;36.76;35.84;37.62;;
67320;Laerm;57665;51.436;5.978;2023-08-20T00:40:22;36.83;35.92;37.73;;
67320;Laerm;57665;51.436;5.978;2023-08-20T00:40:32;36.88;35.89;37.81;;
67320;Laerm;57665;51.436;5.978;2023-08-20T00:40:45;36.93;35.90;38.25;;
67320;Laerm;57665;51.436;5.978;2023-08-20T00:40:56;36.82;35.66;39.13;;
67320;Laerm;57665;51.436;5.978;2023-08-20T00:41:09;36.81;35.82;37.77;;
67320;Laerm;57665;51.436;5.978;2023-08-20T00:41:19;36.90;36.00;37.79;;
67320;Laerm;57665;51.436;5.978;2023-08-20T00:41:30;36.90;36.09;37.83;;
67320;Laerm;57665;51.436;5.978;2023-08-20T00:41:40;36.84;35.61;37.76;;
67320;Laerm;57665;51.436;5.978;2023-08-20T00:41:58;36.92;35.84;40.76;;
67320;Laerm;57665;51.436;5.978;2023-08-20T00:42:09;36.80;35.80;37.73;;
67320;Laerm;57665;51.436;5.978;2023-08-20T00:42:19;36.88;35.85;38.19;;
67320;Laerm;57665;51.436;5.978;2023-08-20T00:42:30;36.94;35.88;39.24;;
67320;Laerm;57665;51.436;5.978;2023-08-20T00:42:40;36.85;35.91;37.89;;
67320;Laerm;57665;51.436;5.978;2023-08-20T00:42:50;36.88;35.94;37.91;;
67320;Laerm;57665;51.436;5.978;2023-08-20T00:43:09;36.86;35.91;37.85;;
67320;Laerm;57665;51.436;5.978;2023-08-20T00:43:20;36.83;35.68;37.94;;
67320;Laerm;57665;51.436;5.978;2023-08-20T00:43:30;36.81;36.00;37.51;;
67320;Laerm;57665;51.436;5.978;2023-08-20T00:43:41;36.86;35.90;38.13;;
67320;Laerm;57665;51.436;5.978;2023-08-20T00:43:51;36.89;35.60;38.92;;
67320;Laerm;57665;51.436;5.978;2023-08-20T00:44:02;37.29;35.97;50.48;;
67320;Laerm;57665;51.436;5.978;2023-08-20T00:44:15;37.49;35.62;41.25;;
67320;Laerm;57665;51.436;5.978;2023-08-20T00:44:28;37.24;35.73;39.94;;
67320;Laerm;57665;51.436;5.978;2023-08-20T00:44:41;36.84;35.98;37.78;;
67320;Laerm;57665;51.436;5.978;2023-08-20T00:44:54;36.86;35.83;37.80;;
67320;Laerm;57665;51.436;5.978;2023-08-20T00:45:04;36.93;36.06;38.40;;
67320;Laerm;57665;51.436;5.978;2023-08-20T00:45:15;36.87;35.83;37.93;;
67320;Laerm;57665;51.436;5.978;2023-08-20T00:45:28;36.80;35.51;37.69;;
67320;Laerm;57665;51.436;5.978;2023-08-20T00:45:40;36.85;35.78;37.98;;
67320;Laerm;57665;51.436;5.978;2023-08-20T00:45:50;36.81;35.74;37.87;;
67320;Laerm;57665;51.436;5.978;2023-08-20T00:46:01;36.82;35.74;37.57;;
67320;Laerm;57665;51.436;5.978;2023-08-20T00:46:12;37.08;35.81;40.58;;
67320;Laerm;57665;51.436;5.978;2023-08-20T00:46:25;36.89;35.67;38.63;;
67320;Laerm;57665;51.436;5.978;2023-08-20T00:46:36;36.85;35.81;38.30;;
67320;Laerm;57665;51.436;5.978;2023-08-20T00:46:46;36.87;35.68;38.80;;
67320;Laerm;57665;51.436;5.978;2023-08-20T00:46:56;36.90;35.75;39.05;;
67320;Laerm;57665;51.436;5.978;2023-08-20T00:47:07;36.89;36.00;38.07;;
67320;Laerm;57665;51.436;5.978;2023-08-20T00:47:18;36.82;35.84;37.72;;
67320;Laerm;57665;51.436;5.978;2023-08-20T00:47:28;36.84;35.99;37.74;;
67320;Laerm;57665;51.436;5.978;2023-08-20T00:47:38;36.86;35.91;37.85;;
67320;Laerm;57665;51.436;5.978;2023-08-20T00:47:50;36.85;35.84;37.97;;
67320;Laerm;57665;51.436;5.978;2023-08-20T00:48:00;36.79;35.88;37.83;;
67320;Laerm;57665;51.436;5.978;2023-08-20T00:48:11;36.85;35.61;37.72;;
67320;Laerm;57665;51.436;5.978;2023-08-20T00:48:30;36.82;35.79;37.85;;
67320;Laerm;57665;51.436;5.978;2023-08-20T00:48:40;36.91;36.04;38.00;;
67320;Laerm;57665;51.436;5.978;2023-08-20T00:48:54;36.88;35.96;37.74;;
67320;Laerm;57665;51.436;5.978;2023-08-20T00:49:04;36.89;35.96;39.62;;
67320;Laerm;57665;51.436;5.978;2023-08-20T00:49:15;36.83;35.51;37.68;;
67320;Laerm;57665;51.436;5.978;2023-08-20T00:49:26;36.88;35.78;39.53;;
67320;Laerm;57665;51.436;5.978;2023-08-20T00:49:36;36.87;35.78;37.93;;
67320;Laerm;57665;51.436;5.978;2023-08-20T00:49:47;36.83;35.70;38.04;;
67320;Laerm;57665;51.436;5.978;2023-08-20T00:50:00;36.90;35.82;37.72;;
67320;Laerm;57665;51.436;5.978;2023-08-20T00:50:11;36.92;35.83;44.04;;
67320;Laerm;57665;51.436;5.978;2023-08-20T00:50:21;36.82;35.81;37.73;;
67320;Laerm;57665;51.436;5.978;2023-08-20T00:50:32;36.85;35.85;37.85;;
67320;Laerm;57665;51.436;5.978;2023-08-20T00:50:43;36.84;35.82;37.65;;
67320;Laerm;57665;51.436;5.978;2023-08-20T00:50:54;36.84;35.85;37.75;;
67320;Laerm;57665;51.436;5.978;2023-08-20T00:51:04;36.84;35.88;37.78;;
67320;Laerm;57665;51.436;5.978;2023-08-20T00:51:14;36.79;35.74;37.73;;
67320;Laerm;57665;51.436;5.978;2023-08-20T00:51:25;36.81;35.85;39.63;;
67320;Laerm;57665;51.436;5.978;2023-08-20T00:51:35;36.81;35.79;38.03;;
67320;Laerm;57665;51.436;5.978;2023-08-20T00:52:07;36.82;35.75;38.00;;
67320;Laerm;57665;51.436;5.978;2023-08-20T00:52:23;36.82;35.87;37.80;;
67320;Laerm;57665;51.436;5.978;2023-08-20T00:52:34;36.90;35.61;37.81;;
67320;Laerm;57665;51.436;5.978;2023-08-20T00:52:45;36.91;35.75;37.68;;
67320;Laerm;57665;51.436;5.978;2023-08-20T00:52:55;36.88;35.81;38.02;;
67320;Laerm;57665;51.436;5.978;2023-08-20T00:53:06;36.94;35.86;39.64;;
67320;Laerm;57665;51.436;5.978;2023-08-20T00:53:17;36.84;35.80;38.00;;
67320;Laerm;57665;51.436;5.978;2023-08-20T00:53:27;36.87;35.82;38.04;;
67320;Laerm;57665;51.436;5.978;2023-08-20T00:53:38;36.82;35.80;38.63;;
67320;Laerm;57665;51.436;5.978;2023-08-20T00:53:48;36.82;35.90;37.66;;
67320;Laerm;57665;51.436;5.978;2023-08-20T00:53:59;36.82;35.78;37.70;;
67320;Laerm;57665;51.436;5.978;2023-08-20T00:54:10;36.87;35.75;40.21;;
67320;Laerm;57665;51.436;5.978;2023-08-20T00:54:23;36.86;36.00;37.96;;
67320;Laerm;57665;51.436;5.978;2023-08-20T00:54:34;36.89;35.86;38.88;;
67320;Laerm;57665;51.436;5.978;2023-08-20T00:54:45;36.85;35.88;37.76;;
67320;Laerm;57665;51.436;5.978;2023-08-20T00:54:57;36.87;35.69;39.01;;
67320;Laerm;57665;51.436;5.978;2023-08-20T00:55:08;36.87;35.82;38.12;;
67320;Laerm;57665;51.436;5.978;2023-08-20T00:55:19;36.91;35.75;40.15;;
67320;Laerm;57665;51.436;5.978;2023-08-20T00:55:29;36.84;35.73;38.70;;
67320;Laerm;57665;51.436;5.978;2023-08-20T00:55:40;36.87;35.82;37.68;;
67320;Laerm;57665;51.436;5.978;2023-08-20T00:55:51;36.96;35.99;37.77;;
67320;Laerm;57665;51.436;5.978;2023-08-20T00:56:04;36.95;35.58;39.93;;
67320;Laerm;57665;51.436;5.978;2023-08-20T00:56:15;37.15;35.89;39.06;;
67320;Laerm;57665;51.436;5.978;2023-08-20T00:56:25;36.98;36.09;38.16;;
67320;Laerm;57665;51.436;5.978;2023-08-20T00:56:44;36.84;35.66;37.84;;
67320;Laerm;57665;51.436;5.978;2023-08-20T00:56:55;36.89;35.78;37.69;;
67320;Laerm;57665;51.436;5.978;2023-08-20T00:57:06;36.87;35.84;40.17;;
67320;Laerm;57665;51.436;5.978;2023-08-20T00:57:26;36.81;35.77;37.78;;
67320;Laerm;57665;51.436;5.978;2023-08-20T00:57:37;36.85;35.72;38.03;;
67320;Laerm;57665;51.436;5.978;2023-08-20T00:57:58;36.90;35.82;38.15;;
67320;Laerm;57665;51.436;5.978;2023-08-20T00:58:10;36.92;35.74;37.98;;
67320;Laerm;57665;51.436;5.978;2023-08-20T00:58:20;36.85;35.84;38.17;;
67320;Laerm;57665;51.436;5.978;2023-08-20T00:58:30;36.93;35.79;39.58;;
67320;Laerm;57665;51.436;5.978;2023-08-20T00:58:41;36.87;35.51;37.91;;
67320;Laerm;57665;51.436;5.978;2023-08-20T00:58:52;36.83;35.72;37.74;;
67320;Laerm;57665;51.436;5.978;2023-08-20T00:59:06;36.87;35.96;37.78;;
67320;Laerm;57665;51.436;5.978;2023-08-20T00:59:16;36.82;35.81;37.88;;
67320;Laerm;57665;51.436;5.978;2023-08-20T00:59:26;36.91;36.03;37.85;;
67320;Laerm;57665;51.436;5.978;2023-08-20T00:59:43;36.88;36.11;38.05;;
67320;Laerm;57665;51.436;5.978;2023-08-20T00:59:54;36.85;35.66;37.95;;
67320;Laerm;57665;51.436;5.978;2023-08-20T01:00:05;37.07;35.63;41.73;;
67320;Laerm;57665;51.436;5.978;2023-08-20T01:00:21;37.30;35.74;46.27;;
67320;Laerm;57665;51.436;5.978;2023-08-20T01:00:33;36.87;35.89;37.86;;
67320;Laerm;57665;51.436;5.978;2023-08-20T01:00:43;36.82;35.83;37.71;;
67320;Laerm;57665;51.436;5.978;2023-08-20T01:01:11;36.85;35.56;37.97;;
67320;Laerm;57665;51.436;5.978;2023-08-20T01:01:21;36.79;35.87;37.67;;
67320;Laerm;57665;51.436;5.978;2023-08-20T01:01:32;36.87;36.00;37.82;;
67320;Laerm;57665;51.436;5.978;2023-08-20T01:01:45;36.86;35.92;37.68;;
67320;Laerm;57665;51.436;5.978;2023-08-20T01:01:55;36.86;35.98;38.31;;
67320;Laerm;57665;51.436;5.978;2023-08-20T01:02:05;36.84;35.88;37.71;;
67320;Laerm;57665;51.436;5.978;2023-08-20T01:02:16;36.87;35.86;37.75;;
67320;Laerm;57665;51.436;5.978;2023-08-20T01:02:27;36.85;35.96;39.17;;
67320;Laerm;57665;51.436;5.978;2023-08-20T01:02:37;36.83;35.73;37.83;;
67320;Laerm;57665;51.436;5.978;2023-08-20T01:02:51;36.81;35.93;37.72;;
67320;Laerm;57665;51.436;5.978;2023-08-20T01:03:01;36.82;35.50;37.71;;
67320;Laerm;57665;51.436;5.978;2023-08-20T01:03:14;36.84;35.72;37.84;;
67320;Laerm;57665;51.436;5.978;2023-08-20T01:03:25;36.83;35.75;37.88;;
67320;Laerm;57665;51.436;5.978;2023-08-20T01:03:36;36.76;35.92;37.62;;
67320;Laerm;57665;51.436;5.978;2023-08-20T01:03:46;36.78;35.69;37.73;;
67320;Laerm;57665;51.436;5.978;2023-08-20T01:03:58;36.79;35.87;37.70;;
67320;Laerm;57665;51.436;5.978;2023-08-20T01:04:09;36.87;35.72;39.38;;
67320;Laerm;57665;51.436;5.978;2023-08-20T01:04:19;36.80;35.87;37.90;;
67320;Laerm;57665;51.436;5.978;2023-08-20T01:04:29;36.80;35.70;37.72;;
67320;Laerm;57665;51.436;5.978;2023-08-20T01:04:40;36.78;35.47;37.80;;
67320;Laerm;57665;51.436;5.978;2023-08-20T01:04:51;36.74;35.72;37.85;;
67320;Laerm;57665;51.436;5.978;2023-08-20T01:05:02;36.76;35.77;37.70;;
67320;Laerm;57665;51.436;5.978;2023-08-20T01:05:13;36.80;35.97;37.83;;
67320;Laerm;57665;51.436;5.978;2023-08-20T01:05:23;36.82;35.69;37.55;;
67320;Laerm;57665;51.436;5.978;2023-08-20T01:05:39;36.76;35.55;37.72;;
67320;Laerm;57665;51.436;5.978;2023-08-20T01:05:53;37.56;35.86;40.98;;
67320;Laerm;57665;51.436;5.978;2023-08-20T01:07:29;36.86;35.70;37.85;;
67320;Laerm;57665;51.436;5.978;2023-08-20T01:07:45;37.55;35.44;41.78;;
67320;Laerm;57665;51.436;5.978;2023-08-20T01:08:37;36.88;35.72;37.90;;
67320;Laerm;57665;51.436;5.978;2023-08-20T01:08:52;36.93;35.86;38.67;;
67320;Laerm;57665;51.436;5.978;2023-08-20T01:09:05;36.97;35.95;38.23;;